This is the latest recevied weather packets stored in our database for station/object VE7THZ. If no packets are shown the sender has not sent any weather packets the latest 1 day(s).
| Time | Temp. | Humidity | Pressure | Rain* | Wind** | Luminosity | Snow |
|---|---|---|---|---|---|---|---|
| 1778086359 | 18.33° C | 40% | 1009.8 hPa | 0 mm | - | - | - |
| 1778085739 | 18.33° C | 42% | 1009.9 hPa | 0 mm | - | - | - |
| 1778084553 | 18.33° C | 43% | 1010 hPa | 0 mm | - | - | - |
| 1778082709 | 16.67° C | 51% | 1010.5 hPa | 0 mm | - | - | - |
| 1778080232 | 13.33° C | 58% | 1010.8 hPa | 0 mm | - | - | - |
| 1778077898 | 12.22° C | 55% | 1010.9 hPa | 0 mm | - | - | - |
| 1778077270 | 12.22° C | 58% | 1011 hPa | 0 mm | - | - | - |
| 1778036292 | 20.56° C | 29% | 1007.2 hPa | 0 mm | - | - | - |
| 1778035667 | 20.56° C | 30% | 1007.1 hPa | 0 mm | - | - | - |
| 1778035082 | 21.67° C | 27% | 1007.2 hPa | 0 mm | - | - | - |
| 1778034455 | 22.22° C | 26% | 1007.2 hPa | 0 mm | - | - | - |
| 1778033837 | 22.78° C | 25% | 1007.2 hPa | 0 mm | - | - | - |
| 1778033257 | 23.33° C | 25% | 1007.2 hPa | 0 mm | - | - | - |
| 1778032028 | 24.44° C | 24% | 1007.3 hPa | 0 mm | - | - | - |
| 1778031434 | 25° C | 22% | 1007.3 hPa | 0 mm | - | - | - |
| 1778030807 | 25.56° C | 22% | 1007.4 hPa | 0 mm | - | - | - |
| 1778030179 | 25.56° C | 22% | 1007.4 hPa | 0 mm | - | - | - |
| 1778029575 | 25.56° C | 22% | 1007.5 hPa | 0 mm | - | - | - |
| 1778028946 | 25.56° C | 23% | 1007.7 hPa | 0 mm | - | - | - |
| 1778028320 | 26.11° C | 21% | 1007.7 hPa | 0 mm | - | - | - |
| 1778027741 | 26.11° C | 22% | 1007.7 hPa | 0 mm | - | - | - |
| 1778026475 | 25.56° C | 21% | 1007.8 hPa | 0 mm | - | - | - |
| 1778024654 | 25.56° C | 24% | 1008.2 hPa | 0 mm | - | - | - |
| 1778021123 | 26.11° C | 24% | 1008.9 hPa | 0 mm | - | - | - |
| 1778019871 | 26.11° C | 24% | 1009.1 hPa | 0 mm | - | - | - |
* Rain latest hour (hover to see other rain measurements)
** Current wind speed in m/s (hover to see current wind gust speed)